Time;durP1;ratioP1;P1;durP2;ratioP2;P2;SDS_P1;SDS_P2;PMS_P1;PMS_P2;Temp;Humidity;BMP_temperature;BMP_pressure;BME280_temperature;BME280_humidity;BME280_pressure;Samples;Min_cycle;Max_cycle;Signal;HPM_P1;HPM_P2
2021/08/14 00:00:42;;;;;;;13.43;8.75;;;21.40;90.60;;;;;;5055553;28;20465;-47
2021/08/14 00:03:08;;;;;;;14.75;9.00;;;21.40;90.40;;;;;;5055766;28;20033;-47
2021/08/14 00:05:33;;;;;;;13.05;9.93;;;21.60;90.20;;;;;;5055641;28;20029;-47
2021/08/14 00:07:59;;;;;;;12.02;8.73;;;21.70;90.00;;;;;;5070029;28;20488;-47
2021/08/14 00:10:25;;;;;;;13.52;9.57;;;21.70;89.90;;;;;;5055429;28;20040;-47
2021/08/14 00:12:51;;;;;;;15.20;8.60;;;21.70;89.80;;;;;;5055534;28;20033;-47
2021/08/14 00:15:16;;;;;;;13.32;8.93;;;21.70;89.40;;;;;;5055301;28;20029;-47
2021/08/14 00:17:42;;;;;;;16.15;10.00;;;21.90;89.10;;;;;;5020243;28;20037;-47
2021/08/14 00:20:09;;;;;;;14.30;9.60;;;21.80;89.20;;;;;;5070112;28;20376;-47
2021/08/14 00:22:34;;;;;;;13.48;9.75;;;22.00;89.20;;;;;;5053172;28;20037;-47
2021/08/14 00:25:00;;;;;;;13.95;9.52;;;22.40;88.00;;;;;;5070202;28;20044;-47
2021/08/14 00:27:26;;;;;;;16.17;9.25;;;22.60;87.50;;;;;;5055094;28;20032;-47
2021/08/14 00:29:52;;;;;;;12.52;9.80;;;22.70;86.70;;;;;;5054910;28;20063;-47
2021/08/14 00:32:17;;;;;;;16.88;9.45;;;22.90;86.00;;;;;;5055189;28;20539;-47
2021/08/14 00:34:43;;;;;;;14.20;9.40;;;22.80;85.60;;;;;;5053170;28;20029;-47
2021/08/14 00:37:09;;;;;;;16.45;8.43;;;22.80;85.70;;;;;;5054942;28;20039;-47
2021/08/14 00:39:35;;;;;;;14.63;8.88;;;22.80;85.30;;;;;;5055087;28;20040;-47
2021/08/14 00:42:00;;;;;;;14.48;9.20;;;22.80;85.80;;;;;;5054975;28;20099;-47
2021/08/14 00:44:26;;;;;;;13.65;9.18;;;23.00;85.60;;;;;;5052082;28;20122;-47
2021/08/14 00:46:52;;;;;;;13.60;9.15;;;23.10;85.10;;;;;;5054941;28;20032;-47
2021/08/14 00:49:18;;;;;;;13.32;8.63;;;23.10;84.80;;;;;;5069382;28;20643;-47
2021/08/14 00:51:44;;;;;;;14.48;8.32;;;23.10;84.90;;;;;;5069143;28;20388;-47
2021/08/14 00:54:10;;;;;;;12.85;8.70;;;23.20;84.00;;;;;;5054836;28;20115;-47
2021/08/14 00:56:36;;;;;;;9.30;8.02;;;23.40;83.80;;;;;;5052834;28;20037;-47
2021/08/14 00:59:04;;;;;;;13.75;9.02;;;23.50;83.20;;;;;;5069111;28;20564;-47
2021/08/14 01:01:30;;;;;;;13.65;8.80;;;23.50;82.90;;;;;;5054670;28;20500;-47
2021/08/14 01:03:56;;;;;;;14.18;9.25;;;23.40;82.90;;;;;;5054608;28;20021;-47
2021/08/14 01:06:23;;;;;;;12.13;8.90;;;23.30;83.60;;;;;;5054299;28;20056;-47
2021/08/14 01:08:50;;;;;;;17.02;9.52;;;23.20;84.80;;;;;;5054427;28;20025;-47
2021/08/14 01:11:16;;;;;;;14.10;9.27;;;23.20;84.60;;;;;;5052325;28;20037;-47
2021/08/14 01:13:44;;;;;;;11.13;8.13;;;23.20;83.90;;;;;;5054100;28;20032;-47
2021/08/14 01:16:10;;;;;;;13.05;8.85;;;23.30;83.50;;;;;;5053929;28;20051;-47
2021/08/14 01:18:45;;;;;;;11.27;9.40;;;23.40;83.20;;;;;;5054116;28;20119;-47
2021/08/14 01:21:18;;;;;;;22.98;11.15;;;23.50;83.20;;;;;;5054037;28;20029;-47
2021/08/14 01:23:46;;;;;;;20.77;12.27;;;23.70;82.80;;;;;;5054321;28;20468;-47
2021/08/14 01:26:13;;;;;;;19.23;13.18;;;23.80;82.10;;;;;;5054314;28;20051;-47
2021/08/14 01:28:39;;;;;;;13.75;11.02;;;23.70;81.60;;;;;;5053829;28;20025;-47
2021/08/14 01:31:07;;;;;;;15.60;10.80;;;23.70;81.80;;;;;;5054160;28;20048;-47
2021/08/14 01:33:37;;;;;;;13.90;9.45;;;23.70;81.90;;;;;;5054023;28;20035;-47
2021/08/14 01:36:10;;;;;;;15.65;9.05;;;23.60;81.90;;;;;;5053721;28;20087;-47
2021/08/14 01:38:53;;;;;;;11.23;9.57;;;23.50;82.00;;;;;;5053780;28;20047;-47
2021/08/14 01:41:20;;;;;;;11.15;9.40;;;23.40;82.10;;;;;;5053565;28;20389;-47
2021/08/14 01:43:50;;;;;;;11.70;8.50;;;23.50;82.10;;;;;;5053791;28;20021;-47
2021/08/14 01:46:16;;;;;;;11.50;9.02;;;23.50;81.90;;;;;;5054105;28;20449;-48
2021/08/14 01:48:42;;;;;;;10.57;8.63;;;23.40;82.00;;;;;;5018455;28;20124;-47
2021/08/14 01:51:07;;;;;;;10.70;8.63;;;23.50;82.10;;;;;;5053538;28;20036;-47
2021/08/14 01:53:33;;;;;;;12.30;9.10;;;23.50;81.90;;;;;;5051658;28;20044;-47
2021/08/14 01:55:59;;;;;;;13.48;9.95;;;23.50;82.00;;;;;;5052850;28;20029;-47
2021/08/14 01:58:25;;;;;;;14.02;9.15;;;23.30;82.50;;;;;;5053459;28;20028;-47
2021/08/14 02:00:50;;;;;;;10.85;9.35;;;23.20;82.70;;;;;;5053783;28;20025;-47
2021/08/14 02:03:16;;;;;;;13.07;9.07;;;23.10;82.90;;;;;;5053955;28;20395;-47
2021/08/14 02:05:43;;;;;;;13.80;9.30;;;23.30;83.10;;;;;;5067723;28;20098;-47
2021/08/14 02:08:09;;;;;;;13.73;9.45;;;23.40;82.50;;;;;;5053481;28;20025;-47
2021/08/14 02:10:34;;;;;;;14.20;9.57;;;23.40;82.60;;;;;;5051279;28;20469;-47
2021/08/14 02:13:00;;;;;;;10.55;9.13;;;23.40;82.50;;;;;;5053154;28;20107;-47
2021/08/14 02:15:26;;;;;;;13.95;9.25;;;23.30;82.40;;;;;;5053346;28;20036;-47
2021/08/14 02:17:52;;;;;;;12.88;9.50;;;23.40;82.30;;;;;;5001629;28;20045;-47
2021/08/14 02:20:17;;;;;;;9.90;8.88;;;23.50;82.00;;;;;;5017570;28;20364;-47
2021/08/14 02:22:43;;;;;;;11.07;8.68;;;23.40;81.80;;;;;;5053185;28;20040;-47
2021/08/14 02:25:09;;;;;;;12.05;8.82;;;23.50;81.70;;;;;;5015032;28;20033;-48
2021/08/14 02:27:35;;;;;;;12.20;8.85;;;23.50;81.40;;;;;;5052289;28;20489;-47
2021/08/14 02:30:01;;;;;;;10.82;8.52;;;23.50;81.30;;;;;;5053146;28;20096;-47
2021/08/14 02:32:27;;;;;;;9.68;7.88;;;23.50;81.10;;;;;;5053298;28;20078;-47
2021/08/14 02:34:52;;;;;;;13.82;8.77;;;23.30;81.40;;;;;;5053212;28;20330;-47
2021/08/14 02:37:18;;;;;;;13.23;8.73;;;23.10;81.80;;;;;;5053474;28;20501;-47
2021/08/14 02:39:44;;;;;;;10.90;8.57;;;22.80;82.80;;;;;;5053027;28;20048;-47
2021/08/14 02:42:09;;;;;;;12.00;8.52;;;23.00;82.90;;;;;;5052704;28;20036;-47
2021/08/14 02:44:35;;;;;;;13.23;9.15;;;23.10;82.60;;;;;;5053250;28;20054;-47
2021/08/14 02:47:01;;;;;;;15.70;8.57;;;23.10;82.40;;;;;;5067821;28;20029;-47
2021/08/14 02:49:27;;;;;;;13.02;8.95;;;23.20;82.30;;;;;;5052736;28;20018;-47
2021/08/14 02:51:52;;;;;;;13.05;9.73;;;23.00;82.60;;;;;;5051147;28;20048;-47
2021/08/14 02:54:18;;;;;;;12.48;8.63;;;22.30;84.30;;;;;;5051177;28;20043;-47
2021/08/14 02:56:44;;;;;;;10.60;9.50;;;22.10;85.40;;;;;;5052677;28;20021;-47
2021/08/14 02:59:09;;;;;;;13.48;9.65;;;21.80;86.60;;;;;;5050987;28;20041;-48
2021/08/14 03:01:35;;;;;;;13.60;9.75;;;21.70;87.40;;;;;;5050943;28;20091;-47
2021/08/14 03:04:01;;;;;;;13.32;9.80;;;21.70;87.70;;;;;;5050482;28;20041;-47
2021/08/14 03:06:27;;;;;;;12.10;9.93;;;21.50;88.30;;;;;;5052802;28;20059;-47
2021/08/14 03:08:54;;;;;;;14.60;10.38;;;21.30;89.10;;;;;;5056526;28;20032;-46
2021/08/14 03:11:20;;;;;;;12.50;9.65;;;21.30;89.70;;;;;;5055949;28;20052;-47
2021/08/14 03:13:46;;;;;;;13.20;9.93;;;21.30;89.80;;;;;;5071365;28;20033;-47
2021/08/14 03:16:12;;;;;;;11.35;9.80;;;21.40;89.40;;;;;;5055651;28;20033;-47
2021/08/14 03:18:38;;;;;;;11.68;9.48;;;21.60;89.20;;;;;;5059366;28;20053;-47
2021/08/14 03:21:04;;;;;;;12.02;9.45;;;21.60;88.80;;;;;;5055726;28;20031;-48
2021/08/14 03:23:30;;;;;;;13.18;9.13;;;21.70;88.30;;;;;;5071276;28;20469;-47
2021/08/14 03:25:56;;;;;;;11.35;9.15;;;21.60;88.90;;;;;;5056495;28;20583;-47
2021/08/14 03:28:21;;;;;;;12.68;8.75;;;21.20;90.00;;;;;;5054331;28;20044;-47
2021/08/14 03:30:47;;;;;;;12.52;9.10;;;20.80;90.80;;;;;;5056275;28;20042;-47
2021/08/14 03:33:13;;;;;;;11.98;9.40;;;20.40;91.70;;;;;;5056025;28;20509;-46
2021/08/14 03:35:38;;;;;;;10.40;8.65;;;20.20;92.50;;;;;;5054073;28;20036;-47
2021/08/14 03:38:04;;;;;;;13.25;9.30;;;20.10;92.90;;;;;;5054187;28;20176;-47
2021/08/14 03:40:30;;;;;;;12.75;9.18;;;20.10;92.90;;;;;;5055816;28;20056;-47
2021/08/14 03:42:55;;;;;;;17.17;9.93;;;20.40;92.70;;;;;;5056270;28;20040;-47
2021/08/14 03:45:22;;;;;;;15.40;9.70;;;20.90;91.90;;;;;;5054158;28;20476;-47
2021/08/14 03:47:47;;;;;;;13.27;9.48;;;21.20;91.20;;;;;;5070686;28;20491;-48
2021/08/14 03:50:14;;;;;;;15.10;9.77;;;21.50;90.60;;;;;;5070590;28;20033;-47
2021/08/14 03:52:40;;;;;;;13.48;9.73;;;21.60;90.40;;;;;;5056200;28;20365;-47
2021/08/14 03:55:07;;;;;;;11.80;8.43;;;21.70;90.20;;;;;;5020145;28;20036;-47
2021/08/14 03:57:33;;;;;;;11.30;8.60;;;21.90;89.70;;;;;;5036423;28;20512;-47
2021/08/14 03:59:59;;;;;;;23.08;9.25;;;22.00;89.00;;;;;;5053520;28;20067;-47
2021/08/14 04:02:25;;;;;;;15.85;9.07;;;21.90;88.90;;;;;;5052564;28;20556;-47
2021/08/14 04:04:52;;;;;;;10.32;9.23;;;22.10;88.80;;;;;;5053126;28;20144;-47
2021/08/14 04:07:18;;;;;;;13.52;8.93;;;22.00;89.20;;;;;;5036471;28;20080;-48
2021/08/14 04:09:44;;;;;;;14.25;8.55;;;22.00;88.00;;;;;;5069742;28;20039;-47
2021/08/14 04:12:10;;;;;;;16.00;10.15;;;21.90;87.90;;;;;;5052820;28;20115;-47
2021/08/14 04:14:36;;;;;;;17.88;9.70;;;21.90;88.40;;;;;;5036605;28;20048;-47
2021/08/14 04:17:03;;;;;;;18.23;9.40;;;22.10;88.30;;;;;;5070017;28;20040;-47
2021/08/14 04:19:29;;;;;;;16.35;9.85;;;22.20;87.70;;;;;;5068696;28;20224;-47
2021/08/14 04:21:55;;;;;;;12.98;8.65;;;22.40;87.20;;;;;;5036399;28;20112;-47
2021/08/14 04:24:21;;;;;;;16.45;9.52;;;22.50;86.90;;;;;;5036418;28;20101;-47
2021/08/14 04:26:47;;;;;;;13.68;9.10;;;22.30;87.00;;;;;;5036319;28;20086;-47
2021/08/14 04:29:12;;;;;;;12.93;9.40;;;22.10;87.70;;;;;;5055431;28;20016;-47
2021/08/14 04:31:38;;;;;;;14.23;9.38;;;21.90;88.30;;;;;;5055411;28;20024;-47
2021/08/14 04:34:04;;;;;;;10.73;8.80;;;21.70;89.30;;;;;;5069682;28;20040;-47
2021/08/14 04:36:30;;;;;;;13.77;8.85;;;21.60;89.60;;;;;;5069932;28;20033;-47
2021/08/14 04:38:56;;;;;;;10.80;8.63;;;21.70;89.70;;;;;;5054966;28;20036;-47
2021/08/14 04:41:22;;;;;;;10.57;8.52;;;21.70;89.80;;;;;;5054745;28;20108;-47
2021/08/14 04:43:48;;;;;;;9.68;8.43;;;21.90;90.10;;;;;;5069502;28;20190;-47
2021/08/14 04:46:14;;;;;;;15.10;8.98;;;21.70;89.70;;;;;;5054952;28;20479;-47
2021/08/14 04:48:39;;;;;;;13.18;8.57;;;21.50;90.40;;;;;;5054734;28;20456;-47
2021/08/14 04:51:05;;;;;;;11.48;8.93;;;21.50;90.70;;;;;;5054903;28;20067;-47
2021/08/14 04:53:31;;;;;;;10.80;9.25;;;21.70;90.70;;;;;;5055125;28;20025;-47
2021/08/14 04:55:57;;;;;;;10.52;8.93;;;21.70;90.70;;;;;;5068890;28;20037;-47
2021/08/14 04:58:22;;;;;;;9.60;8.18;;;21.90;90.70;;;;;;5035760;28;20060;-47
2021/08/14 05:00:48;;;;;;;18.33;8.90;;;22.20;90.50;;;;;;5054784;28;20395;-47
2021/08/14 05:03:16;;;;;;;17.20;10.05;;;22.40;90.30;;;;;;5054677;28;20039;-47
2021/08/14 05:05:43;;;;;;;12.45;9.15;;;22.70;90.10;;;;;;5054694;28;20136;-47
2021/08/14 05:08:09;;;;;;;16.60;9.30;;;23.10;87.90;;;;;;5052473;28;20128;-47
2021/08/14 05:10:35;;;;;;;20.33;9.15;;;23.40;86.80;;;;;;5054176;28;20039;-47
2021/08/14 05:13:00;;;;;;;22.95;10.23;;;23.60;87.00;;;;;;5054385;28;20378;-47
2021/08/14 05:15:26;;;;;;;18.50;9.15;;;23.70;87.00;;;;;;5052409;28;20115;-47
2021/08/14 05:17:52;;;;;;;17.73;9.85;;;23.80;86.70;;;;;;5053986;28;20098;-47
2021/08/14 05:20:18;;;;;;;13.02;8.85;;;24.00;86.20;;;;;;5002580;28;20044;-47
2021/08/14 05:22:44;;;;;;;13.02;8.98;;;24.10;86.50;;;;;;5053438;28;20040;-47
2021/08/14 05:25:10;;;;;;;14.07;9.30;;;24.00;86.50;;;;;;5035084;28;20059;-47
2021/08/14 05:27:36;;;;;;;13.52;9.73;;;24.10;86.80;;;;;;5054259;28;20028;-47
2021/08/14 05:30:02;;;;;;;16.67;10.68;;;24.10;87.00;;;;;;5051899;28;20045;-47
2021/08/14 05:32:28;;;;;;;11.90;9.68;;;24.20;87.70;;;;;;5053737;28;20496;-47
2021/08/14 05:34:54;;;;;;;13.95;10.50;;;24.30;87.40;;;;;;5052065;28;20048;-47
2021/08/14 05:37:20;;;;;;;16.10;10.75;;;24.50;86.80;;;;;;5054355;28;20108;-47
2021/08/14 05:39:45;;;;;;;14.30;10.65;;;24.60;86.10;;;;;;5051453;28;20052;-47
2021/08/14 05:42:11;;;;;;;20.55;12.30;;;24.60;85.80;;;;;;5053926;28;20403;-47
2021/08/14 05:44:37;;;;;;;17.42;11.10;;;24.60;86.60;;;;;;5054008;28;20507;-47
2021/08/14 05:47:03;;;;;;;15.75;10.70;;;24.90;85.80;;;;;;5068101;28;20067;-47
2021/08/14 05:49:29;;;;;;;20.95;11.02;;;25.00;84.60;;;;;;5018575;28;20083;-47
2021/08/14 05:51:57;;;;;;;20.48;12.55;;;25.20;84.70;;;;;;5051833;28;20033;-47
2021/08/14 05:54:22;;;;;;;14.48;12.05;;;25.30;84.60;;;;;;5052191;28;20468;-47
2021/08/14 05:56:48;;;;;;;18.63;13.02;;;25.40;84.20;;;;;;5068264;28;20047;-47
2021/08/14 05:59:14;;;;;;;20.95;10.80;;;25.60;84.50;;;;;;5052954;28;20083;-47
2021/08/14 06:01:40;;;;;;;17.40;10.95;;;25.80;84.60;;;;;;5052586;28;20037;-47
2021/08/14 06:04:06;;;;;;;18.63;10.98;;;26.00;84.60;;;;;;5052962;28;20029;-47
2021/08/14 06:06:32;;;;;;;18.02;11.10;;;;;;;;;;5050509;28;20051;-47
2021/08/14 06:08:58;;;;;;;17.27;11.57;;;26.30;83.60;;;;;;5066906;28;20086;-47
2021/08/14 06:11:25;;;;;;;15.43;10.57;;;26.40;83.70;;;;;;5015670;28;20469;-47
2021/08/14 06:13:50;;;;;;;14.20;10.32;;;26.60;84.40;;;;;;5053086;28;20028;-47
2021/08/14 06:16:16;;;;;;;15.93;10.43;;;26.60;84.70;;;;;;5050337;28;20040;-46
2021/08/14 06:18:42;;;;;;;14.13;10.07;;;26.70;87.30;;;;;;5067549;28;20044;-47
2021/08/14 06:21:09;;;;;;;17.38;10.05;;;;;;;;;;5053016;28;20431;-46
2021/08/14 06:23:35;;;;;;;11.90;9.38;;;;;;;;;;5052919;28;20086;-50
2021/08/14 06:26:01;;;;;;;11.52;9.05;;;;;;;;;;5053010;28;20025;-46
2021/08/14 06:28:28;;;;;;;10.65;8.27;;;;;;;;;;5051315;28;20044;-46
2021/08/14 06:30:54;;;;;;;12.90;9.60;;;;;;;;;;5053043;28;20033;-48
2021/08/14 06:33:20;;;;;;;15.50;10.05;;;;;;;;;;5051226;28;20036;-48
2021/08/14 06:35:46;;;;;;;12.32;8.75;;;;;;;;;;5053245;28;20052;-46
2021/08/14 06:38:13;;;;;;;10.25;8.77;;;;;;;;;;5050056;28;20045;-45
2021/08/14 06:40:38;;;;;;;13.43;8.55;;;28.00;94.60;;;;;;5053151;28;20063;-48
2021/08/14 06:43:05;;;;;;;11.02;7.18;;;;;;;;;;5055426;28;20468;-48
2021/08/14 06:45:31;;;;;;;15.00;8.05;;;;;;;;;;5057050;28;20455;-48
2021/08/14 06:47:57;;;;;;;9.95;6.95;;;28.10;71.50;;;;;;5057207;28;20060;-48
2021/08/14 06:50:22;;;;;;;11.05;6.55;;;28.20;71.30;;;;;;5057225;28;20118;-48
2021/08/14 06:52:48;;;;;;;13.45;7.20;;;;;;;;;;5057086;28;20070;-50
2021/08/14 07:08:22;;;;;;;11.10;6.60;;;28.50;71.60;;;;;;5063544;28;20372;-47
2021/08/14 07:10:48;;;;;;;12.45;6.70;;;29.80;69.70;;;;;;5030818;28;20049;-47
2021/08/14 07:13:13;;;;;;;8.80;6.50;;;29.70;68.30;;;;;;5049585;28;20064;-48
2021/08/14 07:15:39;;;;;;;11.75;6.72;;;29.70;68.10;;;;;;5049484;28;20079;-47
2021/08/14 07:18:05;;;;;;;11.90;6.75;;;29.90;68.70;;;;;;5024325;28;20041;-47
2021/08/14 07:20:31;;;;;;;11.00;7.32;;;30.00;68.20;;;;;;5048447;28;20025;-46
2021/08/14 07:22:56;;;;;;;11.85;7.05;;;30.20;68.60;;;;;;5030398;28;20072;-48
2021/08/14 07:25:23;;;;;;;10.00;7.20;;;30.10;67.40;;;;;;5027099;28;20025;-47
2021/08/14 07:27:49;;;;;;;10.70;6.95;;;30.00;67.80;;;;;;5029472;28;20045;-47
2021/08/14 07:30:15;;;;;;;8.02;6.03;;;30.00;67.40;;;;;;5048751;28;20075;-48
2021/08/14 07:32:40;;;;;;;9.70;5.88;;;30.10;67.80;;;;;;5046660;28;20021;-47
2021/08/14 07:35:07;;;;;;;8.68;6.07;;;30.10;66.80;;;;;;5027189;28;20115;-47
2021/08/14 07:37:33;;;;;;;9.25;5.43;;;30.20;66.40;;;;;;4997313;28;20045;-46
2021/08/14 07:39:59;;;;;;;10.65;7.20;;;30.40;64.70;;;;;;5023328;28;20088;-47
2021/08/14 07:42:25;;;;;;;8.68;6.43;;;30.80;66.70;;;;;;5049012;28;20056;-47
2021/08/14 07:44:51;;;;;;;9.63;5.90;;;30.60;64.70;;;;;;5048647;28;20465;-47
2021/08/14 07:47:17;;;;;;;11.68;4.90;;;30.90;64.60;;;;;;5040175;28;20032;-47
2021/08/14 07:49:42;;;;;;;5.13;4.40;;;30.90;64.20;;;;;;5043632;28;20037;-47
2021/08/14 07:52:08;;;;;;;7.97;5.40;;;30.90;63.40;;;;;;5048114;28;20398;-47
2021/08/14 07:54:35;;;;;;;8.07;4.97;;;31.10;62.50;;;;;;5048487;28;20128;-47
2021/08/14 07:57:00;;;;;;;15.77;5.30;;;31.30;64.40;;;;;;5048338;28;20041;-48
2021/08/14 07:59:26;;;;;;;19.35;5.80;;;31.40;61.90;;;;;;5049020;28;20036;-47
2021/08/14 08:01:52;;;;;;;6.63;3.95;;;31.50;88.40;;;;;;5026244;28;20390;-46
2021/08/14 08:04:17;;;;;;;7.70;4.47;;;31.50;59.40;;;;;;5048097;28;20030;-46
2021/08/14 08:06:43;;;;;;;8.00;4.20;;;;;;;;;;5048127;28;20081;-47
2021/08/14 08:09:10;;;;;;;8.25;4.43;;;;;;;;;;5034936;28;20049;-47
2021/08/14 08:11:36;;;;;;;6.88;4.07;;;;;;;;;;5016629;28;20057;-47
2021/08/14 08:14:01;;;;;;;11.00;4.70;;;32.60;63.50;;;;;;5034579;28;20075;-47
2021/08/14 08:16:27;;;;;;;6.95;4.50;;;;;;;;;;5034315;28;20033;-47
2021/08/14 08:18:54;;;;;;;8.45;4.40;;;;;;;;;;5033763;28;20041;-47
2021/08/14 08:21:20;;;;;;;4.22;3.83;;;;;;;;;;5010046;28;20044;-47
2021/08/14 08:23:46;;;;;;;9.32;5.40;;;;;;;;;;5034631;28;20029;-47
2021/08/14 08:26:12;;;;;;;10.30;4.20;;;;;;;;;;5011384;28;20077;-46
2021/08/14 08:28:38;;;;;;;6.88;4.43;;;;;;;;;;5034859;28;20033;-47
2021/08/14 08:31:04;;;;;;;5.68;4.00;;;;;;;;;;5031528;28;20041;-46
2021/08/14 08:33:30;;;;;;;7.03;3.88;;;;;;;;;;5031628;28;20026;-48
2021/08/14 08:35:56;;;;;;;6.22;4.50;;;33.60;88.30;;;;;;5031221;28;20049;-46
2021/08/14 08:38:22;;;;;;;5.50;3.55;;;;;;;;;;5031603;28;20565;-47
2021/08/14 08:40:48;;;;;;;6.55;4.07;;;33.60;54.80;;;;;;5032271;28;20040;-48
2021/08/14 08:43:14;;;;;;;7.72;3.78;;;34.00;57.40;;;;;;5015143;28;20033;-47
2021/08/14 08:45:40;;;;;;;5.93;3.90;;;;;;;;;;5031760;28;20411;-47
2021/08/14 08:48:07;;;;;;;5.07;4.32;;;;;;;;;;5033050;28;20086;-47
2021/08/14 08:50:35;;;;;;;5.57;3.60;;;34.90;54.30;;;;;;5032294;28;20033;-48
2021/08/14 08:53:04;;;;;;;6.28;3.50;;;35.10;55.40;;;;;;5032943;28;20021;-47
2021/08/14 08:55:32;;;;;;;4.50;3.25;;;;;;;;;;5013777;28;20041;-47
2021/08/14 08:57:59;;;;;;;5.28;3.90;;;34.80;51.70;;;;;;5033341;28;20030;-48
2021/08/14 09:00:25;;;;;;;6.25;4.10;;;;;;;;;;5033281;28;20032;-48
2021/08/14 09:03:11;;;;;;;4.63;3.50;;;;;;;;;;5015657;28;20045;-47
2021/08/14 09:06:07;;;;;;;8.52;4.35;;;;;;;;;;5032952;28;20034;-47
2021/08/14 09:08:33;;;;;;;6.15;3.65;;;;;;;;;;4972653;28;20063;-47
2021/08/14 09:11:11;;;;;;;5.65;3.70;;;;;;;;;;4972661;28;20073;-49
2021/08/14 09:13:39;;;;;;;4.32;3.72;;;;;;;;;;4972950;28;20490;-48
2021/08/14 09:16:22;;;;;;;7.93;4.10;;;;;;;;;;4974402;28;20097;-48
2021/08/14 09:18:54;;;;;;;5.10;3.65;;;;;;;;;;4972904;28;20058;-47
2021/08/14 09:21:32;;;;;;;4.57;3.28;;;;;;;;;;4973312;28;20045;-48
2021/08/14 09:24:00;;;;;;;5.88;3.50;;;35.80;51.20;;;;;;4973556;28;20026;-46
2021/08/14 09:26:26;;;;;;;10.35;4.90;;;35.30;52.70;;;;;;4973913;28;20047;-48
2021/08/14 09:29:03;;;;;;;4.50;3.35;;;35.30;52.60;;;;;;4973254;28;20029;-47
2021/08/14 09:31:46;;;;;;;9.90;5.22;;;35.50;56.20;;;;;;4939066;28;20046;-46
2021/08/14 09:34:16;;;;;;;8.38;4.10;;;35.60;55.30;;;;;;4972883;28;20097;-48
2021/08/14 09:36:42;;;;;;;8.73;4.15;;;35.60;52.30;;;;;;4972021;28;20077;-48
2021/08/14 09:39:08;;;;;;;7.50;4.30;;;35.40;52.90;;;;;;4956344;28;20070;-48
2021/08/14 09:41:34;;;;;;;6.53;4.57;;;35.70;52.70;;;;;;4953824;28;20038;-50
2021/08/14 09:44:00;;;;;;;7.25;4.57;;;35.90;52.10;;;;;;4979921;28;20395;-49
2021/08/14 09:46:42;;;;;;;5.43;3.95;;;35.90;52.70;;;;;;5013693;28;20045;-49
2021/08/14 09:49:10;;;;;;;4.82;3.70;;;36.10;52.10;;;;;;5012145;28;20378;-46
2021/08/14 09:51:37;;;;;;;7.82;4.28;;;35.40;52.20;;;;;;5031971;28;20029;-46
2021/08/14 09:54:04;;;;;;;8.40;4.90;;;35.50;52.70;;;;;;5013163;28;20079;-46
2021/08/14 09:56:37;;;;;;;6.50;4.47;;;35.60;52.20;;;;;;5032574;28;20052;-45
2021/08/14 09:59:04;;;;;;;6.55;4.45;;;;;;;;;;5024397;28;20053;-46
2021/08/14 10:01:36;;;;;;;7.93;4.20;;;37.00;51.30;;;;;;5005084;28;20057;-47
2021/08/14 10:04:03;;;;;;;8.57;4.57;;;;;;;;;;5034473;28;20095;-46
2021/08/14 10:06:29;;;;;;;5.60;3.78;;;37.80;53.50;;;;;;5022732;28;20120;-46
2021/08/14 10:08:56;;;;;;;5.47;4.10;;;37.30;50.90;;;;;;4977223;28;20366;-46
2021/08/14 10:11:22;;;;;;;7.53;3.95;;;37.50;51.00;;;;;;5016364;28;20116;-46
2021/08/14 10:13:49;;;;;;;7.30;4.43;;;36.90;51.60;;;;;;5014110;28;20037;-46
2021/08/14 10:16:16;;;;;;;4.68;3.45;;;37.60;51.90;;;;;;5012406;28;20072;-46
2021/08/14 10:18:44;;;;;;;8.07;4.28;;;37.10;51.80;;;;;;5014080;28;20045;-46
2021/08/14 10:21:23;;;;;;;7.82;4.10;;;37.60;50.70;;;;;;5015798;28;20025;-47
2021/08/14 10:23:55;;;;;;;6.78;4.25;;;37.60;50.80;;;;;;5023201;28;20029;-46
2021/08/14 10:26:27;;;;;;;6.85;5.55;;;37.00;51.00;;;;;;5030684;28;20037;-46
2021/08/14 10:28:54;;;;;;;6.72;4.88;;;37.20;51.40;;;;;;5013884;28;20030;-45
2021/08/14 10:31:35;;;;;;;9.27;4.90;;;37.30;50.90;;;;;;5013748;28;20037;-46
2021/08/14 10:34:13;;;;;;;6.70;5.05;;;37.50;51.10;;;;;;5013879;28;20029;-46
2021/08/14 10:36:40;;;;;;;6.10;3.92;;;37.50;50.80;;;;;;5013731;28;20069;-46
2021/08/14 10:39:33;;;;;;;8.43;4.18;;;37.40;51.20;;;;;;5013841;28;20037;-46
2021/08/14 10:42:02;;;;;;;9.40;4.82;;;37.40;50.60;;;;;;4972490;28;20042;-46
2021/08/14 10:44:36;;;;;;;6.78;4.75;;;37.90;50.50;;;;;;4923639;28;20042;-46
2021/08/14 10:47:02;;;;;;;5.50;4.28;;;38.50;52.00;;;;;;4972825;28;20121;-46
2021/08/14 10:49:34;;;;;;;7.22;4.47;;;38.30;50.10;;;;;;4956638;28;20039;-46
2021/08/14 10:52:03;;;;;;;5.13;4.28;;;37.70;50.80;;;;;;4972836;28;20034;-46
2021/08/14 10:54:29;;;;;;;6.50;4.50;;;38.00;71.80;;;;;;4972754;28;20039;-46
2021/08/14 10:57:08;;;;;;;6.07;4.35;;;36.90;50.00;;;;;;4972388;28;20442;-46
2021/08/14 10:59:40;;;;;;;8.18;4.22;;;37.60;50.30;;;;;;4972716;28;20031;-46
2021/08/14 11:02:09;;;;;;;6.18;4.15;;;37.90;50.30;;;;;;4972969;28;20077;-46
2021/08/14 11:04:40;;;;;;;6.30;4.45;;;38.10;50.20;;;;;;4972471;28;20026;-46
2021/08/14 11:07:20;;;;;;;8.18;4.82;;;38.40;50.90;;;;;;4972666;28;20133;-46
2021/08/14 11:10:06;;;;;;;6.03;4.05;;;38.70;56.70;;;;;;4972641;28;20094;-46
2021/08/14 11:12:34;;;;;;;4.93;4.30;;;38.60;55.10;;;;;;4972518;28;20066;-46
2021/08/14 11:15:50;;;;;;;6.13;4.32;;;38.50;55.20;;;;;;4940413;28;20553;-46
2021/08/14 11:18:49;;;;;;;6.40;4.30;;;38.60;51.80;;;;;;4953119;29;20039;-46
2021/08/14 11:21:15;;;;;;;5.75;4.20;;;38.70;48.90;;;;;;4953215;29;20547;-46
2021/08/14 11:23:57;;;;;;;7.93;4.53;;;38.50;53.90;;;;;;4953282;29;20114;-46
2021/08/14 11:26:36;;;;;;;6.30;4.70;;;38.30;49.30;;;;;;4937233;29;20046;-46
2021/08/14 11:29:03;;;;;;;7.90;4.40;;;;;;;;;;4953248;29;20042;-46
2021/08/14 11:31:29;;;;;;;5.50;4.78;;;38.60;48.40;;;;;;4953195;29;20035;-46
2021/08/14 11:34:12;;;;;;;8.20;4.22;;;38.90;50.10;;;;;;4953149;29;20115;-46
2021/08/14 11:36:38;;;;;;;7.82;4.60;;;;;;;;;;4951771;29;20047;-46
2021/08/14 11:39:04;;;;;;;7.55;4.53;;;;;;;;;;4937082;29;20042;-46
2021/08/14 11:41:31;;;;;;;5.65;5.05;;;;;;;;;;4953319;29;20075;-47
2021/08/14 11:44:02;;;;;;;5.35;4.25;;;39.40;48.40;;;;;;4955111;28;20031;-46
2021/08/14 11:46:27;;;;;;;6.60;4.50;;;39.00;48.60;;;;;;4940560;29;20035;-46
2021/08/14 11:48:54;;;;;;;6.57;4.13;;;;;;;;;;4908918;29;20039;-46
2021/08/14 11:51:24;;;;;;;10.43;4.95;;;;;;;;;;4964045;28;20031;-46
2021/08/14 11:54:06;;;;;;;7.45;4.63;;;38.50;56.20;;;;;;5016902;28;20381;-46
2021/08/14 11:56:32;;;;;;;5.70;4.40;;;;;;;;;;5016969;28;20034;-46
2021/08/14 11:58:58;;;;;;;7.60;4.72;;;;;;;;;;4998888;28;20121;-46
2021/08/14 12:01:25;;;;;;;5.90;4.47;;;;;;;;;;5015501;28;20054;-46
2021/08/14 12:03:55;;;;;;;4.70;4.10;;;;;;;;;;5016706;28;20037;-46
2021/08/14 12:06:20;;;;;;;7.32;4.57;;;39.10;61.50;;;;;;5016594;28;20144;-47
2021/08/14 12:08:47;;;;;;;6.63;4.22;;;;;;;;;;5031343;28;20454;-47
2021/08/14 12:11:20;;;;;;;6.03;4.32;;;39.10;50.80;;;;;;5016583;28;20489;-47
2021/08/14 12:13:46;;;;;;;5.47;4.28;;;38.60;52.70;;;;;;5016424;28;20068;-46
2021/08/14 12:16:19;;;;;;;10.52;5.70;;;37.90;48.90;;;;;;4982497;28;20073;-46
2021/08/14 12:18:47;;;;;;;6.55;4.53;;;37.60;49.70;;;;;;5016454;28;20108;-46
2021/08/14 12:21:15;;;;;;;7.00;4.32;;;37.50;51.00;;;;;;5031176;28;20046;-46
2021/08/14 12:23:41;;;;;;;6.30;4.32;;;37.80;51.80;;;;;;5016482;28;20080;-46
2021/08/14 12:26:22;;;;;;;8.77;4.43;;;38.00;51.20;;;;;;5031155;28;20041;-47
2021/08/14 12:29:02;;;;;;;7.40;4.70;;;38.30;51.60;;;;;;5016153;28;20478;-46
2021/08/14 12:31:28;;;;;;;6.57;4.22;;;38.70;49.90;;;;;;5016759;28;20026;-46
2021/08/14 12:33:59;;;;;;;6.68;4.63;;;37.80;48.30;;;;;;5016088;28;20465;-46
2021/08/14 12:36:39;;;;;;;5.15;4.20;;;37.80;48.60;;;;;;5015950;28;20124;-46
2021/08/14 12:39:08;;;;;;;4.97;4.00;;;38.60;49.30;;;;;;5016173;28;20088;-48
2021/08/14 12:41:39;;;;;;;7.28;4.47;;;38.70;50.60;;;;;;5016012;28;20466;-48
2021/08/14 12:44:07;;;;;;;5.28;4.13;;;39.20;49.40;;;;;;5028936;28;20073;-46
2021/08/14 12:46:33;;;;;;;8.45;4.90;;;38.90;48.90;;;;;;5029143;28;20118;-46
2021/08/14 12:49:23;;;;;;;5.65;4.53;;;39.90;48.60;;;;;;5029068;28;20117;-46
2021/08/14 12:52:06;;;;;;;8.02;4.90;;;;;;;;;;5029089;28;20561;-46
2021/08/14 12:54:33;;;;;;;9.43;4.50;;;39.80;48.00;;;;;;5014555;28;20037;-46
2021/08/14 12:57:04;;;;;;;7.82;4.63;;;39.80;48.40;;;;;;5013954;28;20041;-47
2021/08/14 12:59:31;;;;;;;6.30;4.57;;;39.30;48.30;;;;;;4996255;28;20117;-46
2021/08/14 13:02:04;;;;;;;6.93;4.57;;;39.70;49.00;;;;;;5013837;28;20030;-47
2021/08/14 13:04:34;;;;;;;7.10;4.45;;;39.00;48.30;;;;;;4995790;28;20076;-47
2021/08/14 13:07:00;;;;;;;5.30;4.60;;;39.10;48.90;;;;;;5014146;28;20104;-47
2021/08/14 13:09:27;;;;;;;5.35;4.85;;;38.30;48.50;;;;;;5028626;28;20034;-47
2021/08/14 13:11:54;;;;;;;6.65;4.60;;;38.30;48.80;;;;;;4995728;28;20397;-47